Observations for FAIRFORD RAF, United Kingdom (EGVA)

EGVA 221356Z AUTO 36009KT 9999 CLR 13/01 A3065 RMK AO2 SLP384 T01330010 
EGVA 221256Z AUTO 03010KT 9999 CLR 13/02 A3065 RMK AO2 SLPNO T01280021  
EGVA 221156Z AUTO 02009KT 9999 CLR 12/03 A3065 RMK AO2 SLPNO 60000 T01200032 10120 20051 50002  
EGVA 221056Z AUTO 01010KT 9999 CLR 11/04 A3066 RMK AO2 SLPNO T01140039  
EGVA 220956Z AUTO 02010KT 9999 CLR 11/05 A3065 RMK AO2 SLPNO T01140048  
EGVA 220856Z AUTO 36006KT 9999 CLR 10/05 A3065 RMK AO2 RAB31E41 SLPNO P0000 60000 T00950049 51019   
EGVA 220756Z AUTO 34004KT 9999 CLR 07/04 A3064 RMK AO2 SLPNO T00690035  
EGVA 220656Z AUTO 32004KT 9000 HZ CLR 05/03 A3061 RMK AO2 SLPNO T00530026   
EGVA 220646Z AUTO 33003KT 4000 HZ CLR 05/03 A3061 RMK AO2 VIS 4000V8000 SLPNO
EGVA 220651Z AUTO 33004KT 6000 HZ CLR 05/03 A3061 RMK AO2 SLPNO
EGVA 220556Z AUTO 32005KT 9999 CLR 05/03 A3059 RMK AO2 SLPNO T00530028 10091 20053 52017
EGVA 220456Z AUTO 35003KT 9999 CLR 07/03 A3057 RMK AO2 SLPNO T00660027  
EGVA 220411Z AUTO 00000KT 4000 HZ CLR 07/03 A3056 RMK AO2 VIS 4000V9999 SLPNO
EGVA 220416Z AUTO 00000KT 9000 HZ CLR 06/03 A3056 RMK AO2 SLPNO
EGVA 220356Z AUTO 00000KT 9999 CLR 07/03 A3055 RMK AO2 SLPNO T00680027  
EGVA 220256Z AUTO 04004KT 9000 M CLR 07/03 A3054 RMK AO2 SLPNO T00710030 51016 $
EGVA 220156Z AUTO 02005KT 9000 M CLR 08/03 A3053 RMK AO2 SLPNO T00840034 $  
EGVA 220056Z AUTO 01008KT 9999 CLR M A3053 RMK AO2 SLPNO ALSTG ESTMD $  
EGVA 212356Z AUTO 01006KT 9999 CLR M A3050 RMK AO2 SLPNO ALSTG ESTMD 60000 52017 $  
EGVA 212256Z AUTO 36012G19KT 9999 BKN080 M A3048 RMK AO2 SLPNO ALSTG ESTMD $
EGVA 212156Z AUTO 36011G16KT 9999 FEW039 SCT047 OVC070 M A3047 RMK AO2 SLPNO ALSTG ESTMD $  
EGVA 212146Z AUTO 36008KT 9999 SCT036 SCT050 OVC070 M A3046 RMK AO2 SLPNO ALSTGESTMD $
EGVA 212056Z AUTO 01008KT 9999 OVC035 M A3045 RMK AO2 SLPNO ALSTG ESTMD 60000 52030 $   
EGVA 211956Z AUTO 01009KT 9999 FEW013 SCT028 OVC041 M A3042 RMK AO2 RAE07DZB07E08 SLPNO ALSTG ESTMD P0000 $ 
EGVA 211943Z AUTO 01007KT 9999 FEW013 SCT023 BKN030 OVC040 M A3042 RMK AO2 RAE07DZB07E08 SLPNO ALSTG ESTMD $
EGVA 211908Z AUTO 36008G16KT 9999 OVC018 M A3040 RMK AO2 RAE07DZB07E08 SLPNO ALSTG ESTMD $
EGVA 211923Z AUTO 36009KT 9999 SCT014 OVC022 M A3041 RMK AO2 RAE07DZB07E08 CIG 019 RWY09 SLPNO ALSTG ESTMD $
EGVA 211948Z AUTO 01008KT 9999 FEW013 BKN028 OVC040 M A3042 RMK AO2 RAE07DZB07E08 SLPNO ALSTG ESTMD $
EGVA 211953Z AUTO 01007KT 9999 FEW013 SCT028 OVC041 M A3042 RMK AO2 RAE07DZB07E08 SLPNO ALSTG ESTMD $
EGVA 211856Z AUTO 35011G19KT 9999 -RA OVC019 M A3040 RMK AO2 RAB50 CIG 016 RWY09 SLPNO ALSTG ESTMD P0000 $  
EGVA 211841Z AUTO 32007KT 9999 BKN019 OVC025 M A3038 RMK AO2 SLPNO ALSTG ESTMD $
EGVA 211850Z AUTO 35013G19KT 9999 -RA OVC019 M A3039 RMK AO2 RAB50 OVC V BKN CIG 018 RWY09 SLPNO ALSTG ESTMD $
EGVA 211756Z AUTO 30003KT 9999 OVC024 M A3036 RMK AO2 SLPNO ALSTG ESTMD 52014 $ 
EGVA 211656Z AUTO 29006KT 9999 OVC026 M A3034 RMK AO2 SLPNO ALSTG ESTMD $   
EGVA 211606Z AUTO 29006KT 2000 BR OVC028 M A3033 RMK AO2 VIS 2000V8000 SLPNO ALSTG ESTMD $
EGVA 211608Z AUTO 29006KT 0400 R27/0400VP1500 FG OVC028 M A3033 RMK AO2 VIS 0400V6000 SLPNO ALSTG ESTMD $
EGVA 211609Z AUTO 29006KT 2000 BR OVC028 M A3033 RMK AO2 VIS 0400V5000 SLPNO ALSTG ESTMD $
EGVA 211614Z AUTO 30005KT 8000 HZ OVC028 M A3033 RMK AO2 SLPNO ALSTG ESTMD $
EGVA 211601Z AUTO 29005KT 3600 BR OVC028 M A3033 RMK AO2 VIS 3600V9999 SLPNO ALSTG ESTMD $
EGVA 211556Z AUTO 28006KT 8000 HZ OVC028 M A3033 RMK AO2 SLPNO ALSTG ESTMD $
EGVA 211526Z AUTO 27010KT 3600 BR FEW032 M A3032 RMK AO2 VIS 3600V6000 SLPNO ALSTG ESTMD $
EGVA 211536Z AUTO 28006KT 9000 HZ SCT030 M A3032 RMK AO2 SLPNO ALSTG ESTMD $
EGVA 211541Z AUTO 29006KT 6000 HZ BKN029 M A3032 RMK AO2 SLPNO ALSTG ESTMD $
EGVA 211511Z AUTO 27008KT 6000 HZ CLR M A3032 RMK AO2 SLPNO ALSTG ESTMD $
EGVA 211516Z AUTO 28008KT 5000 BR CLR M A3032 RMK AO2 SLPNO ALSTG ESTMD $
EGVA 211501Z AUTO 26008KT 4000 BR CLR M A3032 RMK AO2 VIS 4000V8000 SLPNO ALSTGESTMD $
EGVA 211456Z AUTO 27008KT 6000 HZ CLR M A3032 RMK AO2 SLPNO ALSTG ESTMD 58003 $ 
EGVA 211436Z AUTO 26006KT 3600 BR CLR M A3032 RMK AO2 VIS 3600V9000 SLPNO ALSTGESTMD $
EGVA 211446Z AUTO 26007KT 2600 BR CLR M A3031 RMK AO2 VIS 2400V4400 SLPNO ALSTGESTMD $
EGVA 211451Z AUTO 26009KT 6000 HZ CLR M A3031 RMK AO2 SLPNO ALSTG ESTMD $
EGVA 211356Z AUTO 25009KT 9000 HZ CLR M A3032 RMK AO2 SLPNO ALSTG ESTMD $